sensor_id;sensor_type;location;lat;lon;timestamp;P1;durP1;ratioP1;P2;durP2;ratioP2
39434;SDS011;66825;51.880;-0.518;2023-05-15T00:00:00;1.48;;;1.38;;
39434;SDS011;66825;51.880;-0.518;2023-05-15T00:02:26;1.50;;;1.40;;
39434;SDS011;66825;51.880;-0.518;2023-05-15T00:04:51;1.70;;;1.60;;
39434;SDS011;66825;51.880;-0.518;2023-05-15T00:07:17;1.50;;;1.40;;
39434;SDS011;66825;51.880;-0.518;2023-05-15T00:09:43;1.58;;;1.48;;
39434;SDS011;66825;51.880;-0.518;2023-05-15T00:12:08;1.40;;;1.30;;
39434;SDS011;66825;51.880;-0.518;2023-05-15T00:14:34;1.50;;;1.40;;
39434;SDS011;66825;51.880;-0.518;2023-05-15T00:16:59;1.38;;;1.27;;
39434;SDS011;66825;51.880;-0.518;2023-05-15T00:19:24;1.30;;;1.20;;
39434;SDS011;66825;51.880;-0.518;2023-05-15T00:21:50;1.40;;;1.30;;
39434;SDS011;66825;51.880;-0.518;2023-05-15T00:24:16;1.65;;;1.55;;
39434;SDS011;66825;51.880;-0.518;2023-05-15T00:26:42;1.50;;;1.40;;
39434;SDS011;66825;51.880;-0.518;2023-05-15T00:29:07;1.40;;;1.30;;
39434;SDS011;66825;51.880;-0.518;2023-05-15T00:31:32;1.33;;;1.20;;
39434;SDS011;66825;51.880;-0.518;2023-05-15T00:33:58;1.50;;;1.40;;
39434;SDS011;66825;51.880;-0.518;2023-05-15T00:36:24;1.40;;;1.30;;
39434;SDS011;66825;51.880;-0.518;2023-05-15T00:38:50;1.50;;;1.40;;
39434;SDS011;66825;51.880;-0.518;2023-05-15T00:41:15;1.20;;;1.10;;
39434;SDS011;66825;51.880;-0.518;2023-05-15T00:43:42;1.15;;;1.05;;
39434;SDS011;66825;51.880;-0.518;2023-05-15T00:46:09;1.30;;;1.20;;
39434;SDS011;66825;51.880;-0.518;2023-05-15T00:48:36;1.30;;;1.20;;
39434;SDS011;66825;51.880;-0.518;2023-05-15T00:51:03;1.50;;;1.40;;
39434;SDS011;66825;51.880;-0.518;2023-05-15T00:53:29;1.20;;;1.10;;
39434;SDS011;66825;51.880;-0.518;2023-05-15T00:55:56;1.35;;;1.25;;
39434;SDS011;66825;51.880;-0.518;2023-05-15T00:58:22;1.60;;;1.50;;
39434;SDS011;66825;51.880;-0.518;2023-05-15T01:00:49;1.30;;;1.20;;
39434;SDS011;66825;51.880;-0.518;2023-05-15T01:03:15;1.25;;;1.15;;
39434;SDS011;66825;51.880;-0.518;2023-05-15T01:05:42;1.30;;;1.20;;
39434;SDS011;66825;51.880;-0.518;2023-05-15T01:10:33;1.00;;;1.00;;
39434;SDS011;66825;51.880;-0.518;2023-05-15T01:12:59;1.30;;;1.20;;
39434;SDS011;66825;51.880;-0.518;2023-05-15T01:15:26;1.17;;;1.08;;
39434;SDS011;66825;51.880;-0.518;2023-05-15T01:17:52;1.20;;;1.10;;
39434;SDS011;66825;51.880;-0.518;2023-05-15T01:20:18;1.35;;;1.25;;
39434;SDS011;66825;51.880;-0.518;2023-05-15T01:26:37;1.30;;;1.20;;
39434;SDS011;66825;51.880;-0.518;2023-05-15T01:29:00;1.20;;;1.10;;
39434;SDS011;66825;51.880;-0.518;2023-05-15T01:31:31;1.30;;;1.20;;
39434;SDS011;66825;51.880;-0.518;2023-05-15T01:34:01;1.03;;;0.90;;
39434;SDS011;66825;51.880;-0.518;2023-05-15T01:36:45;1.20;;;1.10;;
39434;SDS011;66825;51.880;-0.518;2023-05-15T01:39:17;1.20;;;1.10;;
39434;SDS011;66825;51.880;-0.518;2023-05-15T01:41:51;1.20;;;1.10;;
39434;SDS011;66825;51.880;-0.518;2023-05-15T01:44:21;1.20;;;1.10;;
39434;SDS011;66825;51.880;-0.518;2023-05-15T01:46:54;1.40;;;1.20;;
39434;SDS011;66825;51.880;-0.518;2023-05-15T01:49:26;1.08;;;0.98;;
39434;SDS011;66825;51.880;-0.518;2023-05-15T01:51:58;1.17;;;1.08;;
39434;SDS011;66825;51.880;-0.518;2023-05-15T01:54:29;1.10;;;1.00;;
39434;SDS011;66825;51.880;-0.518;2023-05-15T01:56:56;0.90;;;0.90;;
39434;SDS011;66825;51.880;-0.518;2023-05-15T01:59:22;1.20;;;1.10;;
39434;SDS011;66825;51.880;-0.518;2023-05-15T02:01:49;1.17;;;1.08;;
39434;SDS011;66825;51.880;-0.518;2023-05-15T02:04:16;1.17;;;1.08;;
39434;SDS011;66825;51.880;-0.518;2023-05-15T02:06:44;1.20;;;1.10;;
39434;SDS011;66825;51.880;-0.518;2023-05-15T02:09:11;1.20;;;1.10;;
39434;SDS011;66825;51.880;-0.518;2023-05-15T02:11:37;1.30;;;1.20;;
39434;SDS011;66825;51.880;-0.518;2023-05-15T02:14:04;1.20;;;1.10;;
39434;SDS011;66825;51.880;-0.518;2023-05-15T02:16:29;1.20;;;1.08;;
39434;SDS011;66825;51.880;-0.518;2023-05-15T02:18:55;1.38;;;1.15;;
39434;SDS011;66825;51.880;-0.518;2023-05-15T02:21:20;1.13;;;1.02;;
39434;SDS011;66825;51.880;-0.518;2023-05-15T02:23:46;1.20;;;1.08;;
39434;SDS011;66825;51.880;-0.518;2023-05-15T02:28:49;1.05;;;0.95;;
39434;SDS011;66825;51.880;-0.518;2023-05-15T02:31:30;1.17;;;1.08;;
39434;SDS011;66825;51.880;-0.518;2023-05-15T02:34:15;1.20;;;1.10;;
39434;SDS011;66825;51.880;-0.518;2023-05-15T02:36:47;1.10;;;1.00;;
39434;SDS011;66825;51.880;-0.518;2023-05-15T02:39:16;1.00;;;0.90;;
39434;SDS011;66825;51.880;-0.518;2023-05-15T02:41:44;1.00;;;0.90;;
39434;SDS011;66825;51.880;-0.518;2023-05-15T02:44:11;1.00;;;0.90;;
39434;SDS011;66825;51.880;-0.518;2023-05-15T02:46:39;1.10;;;1.00;;
39434;SDS011;66825;51.880;-0.518;2023-05-15T02:49:05;0.82;;;0.82;;
39434;SDS011;66825;51.880;-0.518;2023-05-15T02:51:31;1.02;;;0.90;;
39434;SDS011;66825;51.880;-0.518;2023-05-15T02:53:58;1.05;;;0.95;;
39434;SDS011;66825;51.880;-0.518;2023-05-15T02:56:25;1.23;;;1.00;;
39434;SDS011;66825;51.880;-0.518;2023-05-15T02:58:50;0.90;;;0.90;;
39434;SDS011;66825;51.880;-0.518;2023-05-15T03:01:16;0.93;;;0.90;;
39434;SDS011;66825;51.880;-0.518;2023-05-15T03:03:41;0.80;;;0.80;;
39434;SDS011;66825;51.880;-0.518;2023-05-15T03:06:06;1.38;;;1.00;;
39434;SDS011;66825;51.880;-0.518;2023-05-15T03:08:32;1.17;;;1.08;;
39434;SDS011;66825;51.880;-0.518;2023-05-15T03:10:57;1.60;;;1.20;;
39434;SDS011;66825;51.880;-0.518;2023-05-15T03:13:23;1.05;;;0.90;;
39434;SDS011;66825;51.880;-0.518;2023-05-15T03:15:48;0.80;;;0.80;;
39434;SDS011;66825;51.880;-0.518;2023-05-15T03:18:14;2.05;;;0.95;;
39434;SDS011;66825;51.880;-0.518;2023-05-15T03:20:39;1.30;;;1.00;;
39434;SDS011;66825;51.880;-0.518;2023-05-15T03:23:05;1.02;;;0.95;;
39434;SDS011;66825;51.880;-0.518;2023-05-15T03:25:30;0.90;;;0.90;;
39434;SDS011;66825;51.880;-0.518;2023-05-15T03:27:55;0.80;;;0.80;;
39434;SDS011;66825;51.880;-0.518;2023-05-15T03:30:21;1.13;;;1.02;;
39434;SDS011;66825;51.880;-0.518;2023-05-15T03:32:46;1.00;;;0.90;;
39434;SDS011;66825;51.880;-0.518;2023-05-15T03:35:12;0.80;;;0.73;;
39434;SDS011;66825;51.880;-0.518;2023-05-15T03:37:37;0.90;;;0.90;;
39434;SDS011;66825;51.880;-0.518;2023-05-15T03:40:03;1.38;;;1.00;;
39434;SDS011;66825;51.880;-0.518;2023-05-15T03:42:29;1.13;;;0.95;;
39434;SDS011;66825;51.880;-0.518;2023-05-15T03:44:54;1.02;;;1.00;;
39434;SDS011;66825;51.880;-0.518;2023-05-15T03:47:20;1.05;;;0.95;;
39434;SDS011;66825;51.880;-0.518;2023-05-15T03:49:46;1.00;;;0.90;;
39434;SDS011;66825;51.880;-0.518;2023-05-15T03:52:11;0.95;;;0.88;;
39434;SDS011;66825;51.880;-0.518;2023-05-15T03:54:37;1.00;;;0.90;;
39434;SDS011;66825;51.880;-0.518;2023-05-15T03:57:03;1.00;;;0.90;;
39434;SDS011;66825;51.880;-0.518;2023-05-15T03:59:29;1.08;;;0.98;;
39434;SDS011;66825;51.880;-0.518;2023-05-15T04:01:55;0.95;;;0.80;;
39434;SDS011;66825;51.880;-0.518;2023-05-15T04:04:20;1.00;;;0.90;;
39434;SDS011;66825;51.880;-0.518;2023-05-15T04:06:46;1.02;;;0.77;;
39434;SDS011;66825;51.880;-0.518;2023-05-15T04:09:11;0.80;;;0.80;;
39434;SDS011;66825;51.880;-0.518;2023-05-15T04:11:37;0.80;;;0.80;;
39434;SDS011;66825;51.880;-0.518;2023-05-15T04:14:02;1.30;;;0.90;;
39434;SDS011;66825;51.880;-0.518;2023-05-15T04:16:28;1.40;;;0.90;;
39434;SDS011;66825;51.880;-0.518;2023-05-15T04:18:53;1.00;;;0.70;;
39434;SDS011;66825;51.880;-0.518;2023-05-15T04:21:19;0.88;;;0.70;;
39434;SDS011;66825;51.880;-0.518;2023-05-15T04:23:44;1.05;;;0.95;;
39434;SDS011;66825;51.880;-0.518;2023-05-15T04:26:09;0.98;;;0.85;;
39434;SDS011;66825;51.880;-0.518;2023-05-15T04:28:35;1.00;;;0.80;;
39434;SDS011;66825;51.880;-0.518;2023-05-15T04:31:01;1.00;;;0.90;;
39434;SDS011;66825;51.880;-0.518;2023-05-15T04:33:26;1.00;;;0.90;;
39434;SDS011;66825;51.880;-0.518;2023-05-15T04:35:51;1.10;;;1.00;;
39434;SDS011;66825;51.880;-0.518;2023-05-15T04:38:17;1.20;;;0.88;;
39434;SDS011;66825;51.880;-0.518;2023-05-15T04:40:43;1.00;;;0.80;;
39434;SDS011;66825;51.880;-0.518;2023-05-15T04:43:09;1.33;;;0.73;;
39434;SDS011;66825;51.880;-0.518;2023-05-15T04:45:35;1.10;;;0.90;;
39434;SDS011;66825;51.880;-0.518;2023-05-15T04:48:00;1.45;;;1.00;;
39434;SDS011;66825;51.880;-0.518;2023-05-15T04:50:26;1.20;;;0.90;;
39434;SDS011;66825;51.880;-0.518;2023-05-15T04:52:51;1.30;;;0.82;;
39434;SDS011;66825;51.880;-0.518;2023-05-15T04:55:17;1.67;;;0.80;;
39434;SDS011;66825;51.880;-0.518;2023-05-15T04:57:42;1.25;;;0.90;;
39434;SDS011;66825;51.880;-0.518;2023-05-15T05:00:10;0.90;;;0.80;;
39434;SDS011;66825;51.880;-0.518;2023-05-15T05:02:39;1.10;;;0.90;;
39434;SDS011;66825;51.880;-0.518;2023-05-15T05:05:07;1.17;;;1.00;;
39434;SDS011;66825;51.880;-0.518;2023-05-15T05:07:33;1.05;;;0.80;;
39434;SDS011;66825;51.880;-0.518;2023-05-15T05:09:59;0.80;;;0.70;;
39434;SDS011;66825;51.880;-0.518;2023-05-15T05:12:24;1.55;;;0.90;;
39434;SDS011;66825;51.880;-0.518;2023-05-15T05:14:50;1.20;;;0.85;;
39434;SDS011;66825;51.880;-0.518;2023-05-15T05:17:15;1.38;;;0.80;;
39434;SDS011;66825;51.880;-0.518;2023-05-15T05:19:41;1.40;;;1.00;;
39434;SDS011;66825;51.880;-0.518;2023-05-15T05:22:06;1.13;;;0.93;;
39434;SDS011;66825;51.880;-0.518;2023-05-15T05:24:32;1.83;;;0.80;;
39434;SDS011;66825;51.880;-0.518;2023-05-15T05:27:01;1.58;;;1.00;;
39434;SDS011;66825;51.880;-0.518;2023-05-15T05:29:28;1.10;;;0.90;;
39434;SDS011;66825;51.880;-0.518;2023-05-15T05:31:54;1.42;;;0.80;;
39434;SDS011;66825;51.880;-0.518;2023-05-15T05:34:20;0.90;;;0.70;;
39434;SDS011;66825;51.880;-0.518;2023-05-15T05:36:46;1.20;;;0.80;;
39434;SDS011;66825;51.880;-0.518;2023-05-15T05:39:12;1.27;;;0.82;;
39434;SDS011;66825;51.880;-0.518;2023-05-15T05:41:38;1.23;;;0.85;;
39434;SDS011;66825;51.880;-0.518;2023-05-15T05:44:04;0.88;;;0.75;;
39434;SDS011;66825;51.880;-0.518;2023-05-15T05:46:29;1.50;;;0.90;;
39434;SDS011;66825;51.880;-0.518;2023-05-15T05:48:55;1.45;;;0.80;;
39434;SDS011;66825;51.880;-0.518;2023-05-15T05:51:20;1.23;;;0.90;;
39434;SDS011;66825;51.880;-0.518;2023-05-15T05:53:46;1.17;;;0.90;;
39434;SDS011;66825;51.880;-0.518;2023-05-15T05:56:11;1.58;;;0.80;;
39434;SDS011;66825;51.880;-0.518;2023-05-15T05:58:37;1.33;;;0.75;;
39434;SDS011;66825;51.880;-0.518;2023-05-15T06:01:02;0.90;;;0.80;;
39434;SDS011;66825;51.880;-0.518;2023-05-15T06:03:29;1.02;;;0.80;;
39434;SDS011;66825;51.880;-0.518;2023-05-15T06:05:55;0.60;;;0.60;;
39434;SDS011;66825;51.880;-0.518;2023-05-15T06:08:21;1.58;;;1.00;;
39434;SDS011;66825;51.880;-0.518;2023-05-15T06:10:47;1.40;;;0.80;;
39434;SDS011;66825;51.880;-0.518;2023-05-15T06:13:12;1.30;;;0.90;;
39434;SDS011;66825;51.880;-0.518;2023-05-15T06:15:39;0.70;;;0.60;;
39434;SDS011;66825;51.880;-0.518;2023-05-15T06:18:05;1.08;;;0.80;;
39434;SDS011;66825;51.880;-0.518;2023-05-15T06:20:30;1.30;;;0.70;;
39434;SDS011;66825;51.880;-0.518;2023-05-15T06:22:56;1.40;;;0.95;;
39434;SDS011;66825;51.880;-0.518;2023-05-15T06:25:21;1.17;;;0.80;;
39434;SDS011;66825;51.880;-0.518;2023-05-15T06:27:47;0.98;;;0.80;;
39434;SDS011;66825;51.880;-0.518;2023-05-15T06:30:13;1.00;;;0.75;;
39434;SDS011;66825;51.880;-0.518;2023-05-15T06:32:39;1.27;;;0.90;;
39434;SDS011;66825;51.880;-0.518;2023-05-15T06:35:06;1.38;;;0.80;;
39434;SDS011;66825;51.880;-0.518;2023-05-15T06:37:32;2.00;;;0.95;;
39434;SDS011;66825;51.880;-0.518;2023-05-15T06:39:57;1.55;;;1.00;;
39434;SDS011;66825;51.880;-0.518;2023-05-15T06:42:23;0.93;;;0.70;;
39434;SDS011;66825;51.880;-0.518;2023-05-15T06:44:48;1.63;;;0.82;;
39434;SDS011;66825;51.880;-0.518;2023-05-15T06:47:14;1.10;;;0.70;;
39434;SDS011;66825;51.880;-0.518;2023-05-15T06:49:40;2.47;;;0.93;;
39434;SDS011;66825;51.880;-0.518;2023-05-15T06:52:05;1.70;;;0.88;;
39434;SDS011;66825;51.880;-0.518;2023-05-15T06:54:31;1.65;;;0.73;;
39434;SDS011;66825;51.880;-0.518;2023-05-15T06:56:56;1.30;;;0.90;;
39434;SDS011;66825;51.880;-0.518;2023-05-15T06:59:22;1.70;;;0.85;;
39434;SDS011;66825;51.880;-0.518;2023-05-15T07:01:47;1.27;;;0.80;;
39434;SDS011;66825;51.880;-0.518;2023-05-15T07:04:13;1.40;;;0.70;;
39434;SDS011;66825;51.880;-0.518;2023-05-15T07:06:38;1.38;;;0.95;;
39434;SDS011;66825;51.880;-0.518;2023-05-15T07:09:03;1.45;;;0.80;;
39434;SDS011;66825;51.880;-0.518;2023-05-15T07:11:29;1.30;;;0.68;;
39434;SDS011;66825;51.880;-0.518;2023-05-15T07:13:54;1.30;;;0.80;;
39434;SDS011;66825;51.880;-0.518;2023-05-15T07:16:20;1.30;;;0.88;;
39434;SDS011;66825;51.880;-0.518;2023-05-15T07:18:45;1.17;;;0.82;;
39434;SDS011;66825;51.880;-0.518;2023-05-15T07:21:11;1.58;;;0.90;;
39434;SDS011;66825;51.880;-0.518;2023-05-15T07:23:36;1.52;;;0.70;;
39434;SDS011;66825;51.880;-0.518;2023-05-15T07:26:02;1.23;;;0.70;;
39434;SDS011;66825;51.880;-0.518;2023-05-15T07:28:27;1.35;;;1.00;;
39434;SDS011;66825;51.880;-0.518;2023-05-15T07:30:53;2.70;;;0.98;;
39434;SDS011;66825;51.880;-0.518;2023-05-15T07:33:18;2.03;;;0.88;;
39434;SDS011;66825;51.880;-0.518;2023-05-15T07:35:44;3.28;;;1.10;;
39434;SDS011;66825;51.880;-0.518;2023-05-15T07:38:09;2.33;;;1.00;;
39434;SDS011;66825;51.880;-0.518;2023-05-15T07:40:35;2.70;;;1.00;;
39434;SDS011;66825;51.880;-0.518;2023-05-15T07:43:01;3.25;;;0.90;;
39434;SDS011;66825;51.880;-0.518;2023-05-15T07:45:26;2.60;;;0.90;;
39434;SDS011;66825;51.880;-0.518;2023-05-15T07:47:52;2.45;;;0.90;;
39434;SDS011;66825;51.880;-0.518;2023-05-15T07:50:18;1.88;;;0.80;;
39434;SDS011;66825;51.880;-0.518;2023-05-15T07:52:44;1.98;;;0.75;;
39434;SDS011;66825;51.880;-0.518;2023-05-15T07:55:09;1.90;;;0.90;;
39434;SDS011;66825;51.880;-0.518;2023-05-15T07:57:35;4.45;;;1.40;;
39434;SDS011;66825;51.880;-0.518;2023-05-15T08:00:01;2.95;;;1.15;;
39434;SDS011;66825;51.880;-0.518;2023-05-15T08:02:33;3.58;;;1.23;;
39434;SDS011;66825;51.880;-0.518;2023-05-15T08:04:58;3.58;;;1.30;;
39434;SDS011;66825;51.880;-0.518;2023-05-15T08:07:24;5.53;;;1.48;;
39434;SDS011;66825;51.880;-0.518;2023-05-15T08:09:49;4.38;;;1.60;;
39434;SDS011;66825;51.880;-0.518;2023-05-15T08:12:19;2.60;;;1.20;;
39434;SDS011;66825;51.880;-0.518;2023-05-15T08:14:49;3.60;;;1.23;;
39434;SDS011;66825;51.880;-0.518;2023-05-15T08:17:15;4.45;;;1.42;;
39434;SDS011;66825;51.880;-0.518;2023-05-15T08:19:41;11.00;;;2.40;;
39434;SDS011;66825;51.880;-0.518;2023-05-15T08:22:07;8.90;;;2.00;;
39434;SDS011;66825;51.880;-0.518;2023-05-15T08:24:32;7.88;;;2.28;;
39434;SDS011;66825;51.880;-0.518;2023-05-15T08:26:58;7.45;;;2.10;;
39434;SDS011;66825;51.880;-0.518;2023-05-15T08:29:24;7.65;;;2.10;;
39434;SDS011;66825;51.880;-0.518;2023-05-15T08:31:50;7.07;;;2.10;;
39434;SDS011;66825;51.880;-0.518;2023-05-15T08:34:15;7.40;;;2.08;;
39434;SDS011;66825;51.880;-0.518;2023-05-15T08:36:41;6.85;;;1.75;;
39434;SDS011;66825;51.880;-0.518;2023-05-15T08:39:06;7.70;;;1.80;;
39434;SDS011;66825;51.880;-0.518;2023-05-15T08:41:36;6.90;;;1.90;;
39434;SDS011;66825;51.880;-0.518;2023-05-15T08:44:07;6.45;;;2.28;;
39434;SDS011;66825;51.880;-0.518;2023-05-15T08:46:33;5.05;;;2.20;;
39434;SDS011;66825;51.880;-0.518;2023-05-15T08:49:00;7.80;;;2.22;;
39434;SDS011;66825;51.880;-0.518;2023-05-15T08:51:32;6.47;;;1.98;;
39434;SDS011;66825;51.880;-0.518;2023-05-15T08:53:57;6.50;;;2.17;;
39434;SDS011;66825;51.880;-0.518;2023-05-15T08:56:23;7.80;;;1.88;;
39434;SDS011;66825;51.880;-0.518;2023-05-15T08:58:49;5.90;;;2.15;;
39434;SDS011;66825;51.880;-0.518;2023-05-15T09:01:14;7.63;;;2.70;;
39434;SDS011;66825;51.880;-0.518;2023-05-15T09:03:40;9.20;;;2.47;;
39434;SDS011;66825;51.880;-0.518;2023-05-15T09:06:06;7.85;;;1.92;;
39434;SDS011;66825;51.880;-0.518;2023-05-15T09:08:34;6.88;;;2.35;;
39434;SDS011;66825;51.880;-0.518;2023-05-15T09:11:01;8.50;;;2.10;;
39434;SDS011;66825;51.880;-0.518;2023-05-15T09:13:28;6.05;;;1.80;;
39434;SDS011;66825;51.880;-0.518;2023-05-15T09:15:55;4.07;;;1.63;;
39434;SDS011;66825;51.880;-0.518;2023-05-15T09:18:20;6.18;;;1.80;;
39434;SDS011;66825;51.880;-0.518;2023-05-15T09:20:46;3.05;;;1.50;;
39434;SDS011;66825;51.880;-0.518;2023-05-15T09:23:22;8.25;;;2.13;;
39434;SDS011;66825;51.880;-0.518;2023-05-15T09:25:49;6.75;;;1.63;;
39434;SDS011;66825;51.880;-0.518;2023-05-15T09:28:30;15.40;;;2.67;;
39434;SDS011;66825;51.880;-0.518;2023-05-15T09:30:58;15.25;;;3.00;;
39434;SDS011;66825;51.880;-0.518;2023-05-15T09:35:54;3.65;;;1.73;;
39434;SDS011;66825;51.880;-0.518;2023-05-15T09:38:20;6.20;;;1.75;;
39434;SDS011;66825;51.880;-0.518;2023-05-15T09:40:45;4.85;;;1.55;;
39434;SDS011;66825;51.880;-0.518;2023-05-15T09:43:11;6.22;;;1.75;;
39434;SDS011;66825;51.880;-0.518;2023-05-15T09:45:36;9.68;;;1.95;;
39434;SDS011;66825;51.880;-0.518;2023-05-15T09:48:05;5.00;;;1.58;;
39434;SDS011;66825;51.880;-0.518;2023-05-15T09:50:33;3.13;;;1.27;;
39434;SDS011;66825;51.880;-0.518;2023-05-15T09:53:00;4.85;;;1.42;;
39434;SDS011;66825;51.880;-0.518;2023-05-15T09:55:26;4.85;;;1.27;;
39434;SDS011;66825;51.880;-0.518;2023-05-15T09:58:05;3.03;;;1.10;;
39434;SDS011;66825;51.880;-0.518;2023-05-15T10:00:35;4.57;;;1.40;;
39434;SDS011;66825;51.880;-0.518;2023-05-15T10:03:03;3.03;;;1.20;;
39434;SDS011;66825;51.880;-0.518;2023-05-15T10:05:29;3.72;;;1.40;;
39434;SDS011;66825;51.880;-0.518;2023-05-15T10:07:55;7.82;;;1.65;;
39434;SDS011;66825;51.880;-0.518;2023-05-15T10:10:22;6.90;;;1.75;;
39434;SDS011;66825;51.880;-0.518;2023-05-15T10:12:51;3.20;;;1.35;;
39434;SDS011;66825;51.880;-0.518;2023-05-15T10:15:18;6.10;;;1.48;;
39434;SDS011;66825;51.880;-0.518;2023-05-15T10:17:48;3.42;;;1.30;;
39434;SDS011;66825;51.880;-0.518;2023-05-15T10:20:15;3.60;;;1.30;;
39434;SDS011;66825;51.880;-0.518;2023-05-15T10:22:44;6.53;;;1.48;;
39434;SDS011;66825;51.880;-0.518;2023-05-15T10:28:07;5.32;;;1.70;;
39434;SDS011;66825;51.880;-0.518;2023-05-15T10:30:35;6.05;;;1.42;;
39434;SDS011;66825;51.880;-0.518;2023-05-15T10:33:01;4.70;;;1.40;;
39434;SDS011;66825;51.880;-0.518;2023-05-15T10:35:28;5.38;;;1.40;;
39434;SDS011;66825;51.880;-0.518;2023-05-15T10:37:54;5.22;;;1.40;;
39434;SDS011;66825;51.880;-0.518;2023-05-15T10:40:21;4.68;;;1.70;;
39434;SDS011;66825;51.880;-0.518;2023-05-15T10:42:47;4.55;;;1.48;;
39434;SDS011;66825;51.880;-0.518;2023-05-15T10:45:14;4.07;;;1.30;;
39434;SDS011;66825;51.880;-0.518;2023-05-15T10:47:40;7.00;;;1.60;;
39434;SDS011;66825;51.880;-0.518;2023-05-15T10:50:07;5.32;;;1.70;;
39434;SDS011;66825;51.880;-0.518;2023-05-15T10:52:36;4.35;;;1.48;;
39434;SDS011;66825;51.880;-0.518;2023-05-15T10:55:08;6.95;;;2.33;;
39434;SDS011;66825;51.880;-0.518;2023-05-15T10:57:37;6.80;;;2.83;;
39434;SDS011;66825;51.880;-0.518;2023-05-15T11:00:09;6.05;;;2.67;;
39434;SDS011;66825;51.880;-0.518;2023-05-15T11:02:49;9.98;;;3.20;;
39434;SDS011;66825;51.880;-0.518;2023-05-15T11:05:18;7.65;;;3.67;;
39434;SDS011;66825;51.880;-0.518;2023-05-15T11:07:43;8.88;;;4.50;;
39434;SDS011;66825;51.880;-0.518;2023-05-15T11:12:55;10.85;;;5.35;;
39434;SDS011;66825;51.880;-0.518;2023-05-15T11:15:22;9.07;;;4.95;;
39434;SDS011;66825;51.880;-0.518;2023-05-15T11:18:01;9.95;;;5.35;;
39434;SDS011;66825;51.880;-0.518;2023-05-15T11:21:12;9.77;;;5.88;;
39434;SDS011;66825;51.880;-0.518;2023-05-15T11:23:21;12.02;;;6.68;;
39434;SDS011;66825;51.880;-0.518;2023-05-15T11:25:56;9.20;;;5.97;;
39434;SDS011;66825;51.880;-0.518;2023-05-15T11:28:22;9.50;;;6.15;;
39434;SDS011;66825;51.880;-0.518;2023-05-15T11:30:53;11.20;;;6.45;;
39434;SDS011;66825;51.880;-0.518;2023-05-15T11:33:23;11.30;;;6.60;;
39434;SDS011;66825;51.880;-0.518;2023-05-15T11:35:57;11.27;;;6.00;;
39434;SDS011;66825;51.880;-0.518;2023-05-15T11:38:24;8.85;;;5.53;;
39434;SDS011;66825;51.880;-0.518;2023-05-15T11:40:51;13.27;;;6.25;;
39434;SDS011;66825;51.880;-0.518;2023-05-15T11:45:54;10.95;;;5.93;;
39434;SDS011;66825;51.880;-0.518;2023-05-15T11:48:40;10.73;;;5.65;;
39434;SDS011;66825;51.880;-0.518;2023-05-15T11:51:14;11.98;;;5.95;;
39434;SDS011;66825;51.880;-0.518;2023-05-15T11:53:48;12.48;;;5.68;;
39434;SDS011;66825;51.880;-0.518;2023-05-15T11:56:18;8.90;;;5.32;;
39434;SDS011;66825;51.880;-0.518;2023-05-15T11:58:55;11.25;;;6.05;;
39434;SDS011;66825;51.880;-0.518;2023-05-15T12:01:21;12.10;;;5.30;;
39434;SDS011;66825;51.880;-0.518;2023-05-15T12:03:47;10.18;;;5.50;;
39434;SDS011;66825;51.880;-0.518;2023-05-15T12:06:13;8.95;;;4.15;;
39434;SDS011;66825;51.880;-0.518;2023-05-15T12:08:40;9.50;;;4.70;;
39434;SDS011;66825;51.880;-0.518;2023-05-15T12:11:06;12.63;;;4.60;;
39434;SDS011;66825;51.880;-0.518;2023-05-15T12:13:32;10.85;;;5.05;;
39434;SDS011;66825;51.880;-0.518;2023-05-15T12:15:59;10.18;;;4.82;;
39434;SDS011;66825;51.880;-0.518;2023-05-15T12:18:26;14.02;;;5.13;;
39434;SDS011;66825;51.880;-0.518;2023-05-15T12:20:51;8.63;;;4.45;;
39434;SDS011;66825;51.880;-0.518;2023-05-15T12:23:19;10.25;;;4.82;;
39434;SDS011;66825;51.880;-0.518;2023-05-15T12:25:46;8.15;;;4.00;;
39434;SDS011;66825;51.880;-0.518;2023-05-15T12:28:13;8.57;;;4.68;;
39434;SDS011;66825;51.880;-0.518;2023-05-15T12:30:39;15.85;;;5.82;;
39434;SDS011;66825;51.880;-0.518;2023-05-15T12:33:07;12.07;;;5.07;;
39434;SDS011;66825;51.880;-0.518;2023-05-15T12:35:34;9.70;;;4.55;;
39434;SDS011;66825;51.880;-0.518;2023-05-15T12:38:04;10.60;;;4.43;;
39434;SDS011;66825;51.880;-0.518;2023-05-15T12:40:34;12.10;;;5.43;;
39434;SDS011;66825;51.880;-0.518;2023-05-15T12:43:03;13.38;;;5.15;;
39434;SDS011;66825;51.880;-0.518;2023-05-15T12:45:30;11.68;;;4.60;;
39434;SDS011;66825;51.880;-0.518;2023-05-15T12:48:00;10.50;;;4.32;;
39434;SDS011;66825;51.880;-0.518;2023-05-15T12:50:26;9.27;;;4.10;;
39434;SDS011;66825;51.880;-0.518;2023-05-15T12:52:55;9.43;;;4.47;;
39434;SDS011;66825;51.880;-0.518;2023-05-15T12:55:25;9.57;;;4.10;;
39434;SDS011;66825;51.880;-0.518;2023-05-15T12:57:54;8.63;;;4.07;;
39434;SDS011;66825;51.880;-0.518;2023-05-15T13:00:21;7.97;;;3.80;;
39434;SDS011;66825;51.880;-0.518;2023-05-15T13:02:48;7.68;;;3.35;;
39434;SDS011;66825;51.880;-0.518;2023-05-15T13:05:16;8.07;;;3.70;;
39434;SDS011;66825;51.880;-0.518;2023-05-15T13:07:42;9.93;;;3.42;;
39434;SDS011;66825;51.880;-0.518;2023-05-15T13:10:08;9.20;;;3.53;;
39434;SDS011;66825;51.880;-0.518;2023-05-15T13:12:38;7.35;;;3.60;;
39434;SDS011;66825;51.880;-0.518;2023-05-15T13:15:06;7.78;;;3.38;;
39434;SDS011;66825;51.880;-0.518;2023-05-15T13:17:32;8.50;;;3.60;;
39434;SDS011;66825;51.880;-0.518;2023-05-15T13:20:04;7.35;;;3.50;;
39434;SDS011;66825;51.880;-0.518;2023-05-15T13:22:30;9.02;;;3.30;;
39434;SDS011;66825;51.880;-0.518;2023-05-15T13:24:56;7.63;;;3.20;;
39434;SDS011;66825;51.880;-0.518;2023-05-15T13:27:22;8.95;;;3.20;;
39434;SDS011;66825;51.880;-0.518;2023-05-15T13:29:48;4.55;;;2.70;;
39434;SDS011;66825;51.880;-0.518;2023-05-15T13:32:13;8.57;;;2.92;;
39434;SDS011;66825;51.880;-0.518;2023-05-15T13:34:38;8.52;;;3.22;;
39434;SDS011;66825;51.880;-0.518;2023-05-15T13:37:04;9.32;;;2.90;;
39434;SDS011;66825;51.880;-0.518;2023-05-15T13:39:29;5.28;;;2.95;;
39434;SDS011;66825;51.880;-0.518;2023-05-15T13:41:55;6.40;;;2.65;;
39434;SDS011;66825;51.880;-0.518;2023-05-15T13:44:20;8.13;;;3.10;;
39434;SDS011;66825;51.880;-0.518;2023-05-15T13:46:46;5.00;;;2.40;;
39434;SDS011;66825;51.880;-0.518;2023-05-15T13:49:11;8.60;;;2.53;;
39434;SDS011;66825;51.880;-0.518;2023-05-15T13:51:36;7.80;;;2.70;;
39434;SDS011;66825;51.880;-0.518;2023-05-15T13:54:02;8.73;;;2.60;;
39434;SDS011;66825;51.880;-0.518;2023-05-15T13:56:28;10.05;;;2.78;;
39434;SDS011;66825;51.880;-0.518;2023-05-15T13:58:53;5.45;;;2.33;;
39434;SDS011;66825;51.880;-0.518;2023-05-15T14:01:19;8.80;;;2.58;;
39434;SDS011;66825;51.880;-0.518;2023-05-15T14:03:44;7.93;;;2.30;;
39434;SDS011;66825;51.880;-0.518;2023-05-15T14:06:10;8.63;;;2.70;;
39434;SDS011;66825;51.880;-0.518;2023-05-15T14:08:36;7.47;;;2.60;;
39434;SDS011;66825;51.880;-0.518;2023-05-15T14:11:01;6.95;;;2.40;;
39434;SDS011;66825;51.880;-0.518;2023-05-15T14:13:27;6.13;;;2.00;;
39434;SDS011;66825;51.880;-0.518;2023-05-15T14:15:55;4.03;;;1.85;;
39434;SDS011;66825;51.880;-0.518;2023-05-15T14:18:22;5.70;;;1.85;;
39434;SDS011;66825;51.880;-0.518;2023-05-15T14:20:47;7.95;;;2.50;;
39434;SDS011;66825;51.880;-0.518;2023-05-15T14:23:13;13.32;;;2.42;;
39434;SDS011;66825;51.880;-0.518;2023-05-15T14:25:39;9.38;;;2.65;;
39434;SDS011;66825;51.880;-0.518;2023-05-15T14:28:05;17.52;;;3.40;;
39434;SDS011;66825;51.880;-0.518;2023-05-15T14:30:30;7.40;;;2.60;;
39434;SDS011;66825;51.880;-0.518;2023-05-15T14:32:56;7.53;;;2.30;;
39434;SDS011;66825;51.880;-0.518;2023-05-15T14:35:21;5.55;;;1.90;;
39434;SDS011;66825;51.880;-0.518;2023-05-15T14:37:47;6.72;;;2.50;;
39434;SDS011;66825;51.880;-0.518;2023-05-15T14:40:12;10.52;;;2.70;;
39434;SDS011;66825;51.880;-0.518;2023-05-15T14:42:37;8.57;;;2.72;;
39434;SDS011;66825;51.880;-0.518;2023-05-15T14:45:04;6.55;;;2.33;;
39434;SDS011;66825;51.880;-0.518;2023-05-15T14:47:30;8.88;;;2.30;;
39434;SDS011;66825;51.880;-0.518;2023-05-15T14:49:56;8.02;;;2.15;;